Williamstown, MA (01267)

9:43 AM EST on December 19, 2014 (GMT -0500)
APRSWXNET Williamstown MA US | Change Station
CLOSE
Current Station
Personal Weather Station
Location: Williamstown, MA
Elevation: 1089 ft
Nearby Weather Stations

Elev 1089 ft 42.67 °N, 73.24 °W | Updated 26 minutes ago

Overcast
Overcast
27 °F
Feels Like 19 °F
N
8
Wind Variable Wind from West
Gusts 14.0 mph

Today
High -- | Low -- °F
--% Chance of Precip.
Yesterday
High -- | Low -- °F
Precip. -- in
7:18 AM 4:21 PM
Waning Crescent, 7% visible
Pressure 30.02 in
Visibility 10.0 miles
Clouds Overcast 1700 ft
Windchill 19 °F
Dew Point 21 °F
Humidity 79%
Rainfall 0.01 in
Snow Depth Not available.
UV 0 out of 12
Pollen .10 out of 12
Air Quality Not available.
Flu Activity Not available.
METAR KAQW 191352Z AUTO 29006KT 10SM OVC017 M02/M05 A2999 RMK AO2 SLP164 T10171050

More Conditions Fewer Conditions

Pressure 30.02 in
Visibility 10.0 miles
Clouds Overcast 1700 ft
Windchill 19 °F
Dew Point 21 °F
Humidity 79%
Rainfall 0.01 in
Snow Depth Not available.
UV 0 out of 12
Pollen .10 out of 12
Air Quality Not available.
Flu Activity Not available.
METAR KAQW 191352Z AUTO 29006KT 10SM OVC017 M02/M05 A2999 RMK AO2 SLP164 T10171050

More Conditions Fewer Conditions

10-Day Weather Forecast

Almanac

Astronomy

Dec. 19, 2014 Rise Set
Actual Time
Civil Twilight
Nautical Twilight
Astronomical Twilight
Moon
Length of Visible Light
Length of Day
Tomorrow will be .
, % of the Moon is Illuminated

Today's Extremes

State Highs State Lows

Community

WunderPhotos

Upload Photos

1,778,988 photos uploaded!

WunderBlogs® & News

Nearby

Air Quality

  Air Quality AQ Index Pollutant
Not available.

Snow Depth

Station Depth Elevation

Earthquake Activity

City Distance Mag. Time & Date
Minimum magnitude displayed is 2.5.

Coastal Water Temperatures

Place Temperature

Nearby Weather Stations